| time (UTC) | temp F | wind direction | speed MPH | gust MPH | rain 1hr in | rain 24hr in | rain mn in | humidity % | barometer mb |
| 20260510093052 | 63 | 0 | 0.0 | 0.0 | 0.00 | 0.00 | 0.00 | 8 | 1020.1 |
| 20260510091549 | 63 | 0 | 0.0 | 0.0 | 0.00 | 0.00 | 0.00 | 8 | 1020.2 |
| 20260510090053 | 63 | 0 | 0.0 | 0.0 | 0.00 | 0.00 | 0.00 | 8 | 1020.2 |
| 20260510084548 | 62 | 0 | 0.0 | 0.0 | 0.00 | 0.00 | 0.00 | 9 | 1020.3 |
| 20260510083049 | 62 | 0 | 0.0 | 0.0 | 0.00 | 0.00 | 0.00 | 9 | 1020.3 |
| 20260510081601 | 61 | 0 | 0.0 | 0.0 | 0.00 | 0.00 | 0.00 | 10 | 1020.4 |
| 20260510080055 | 61 | 0 | 0.0 | 0.0 | 0.00 | 0.00 | 0.00 | 12 | 1020.4 |
| 20260510074549 | 61 | 0 | 0.0 | 0.0 | 0.00 | 0.00 | 0.00 | 11 | 1020.6 |
| 20260510073052 | 61 | 0 | 0.0 | 0.0 | 0.00 | 0.00 | 0.00 | 10 | 1020.6 |
| 20260510071552 | 61 | 0 | 0.0 | 0.0 | 0.00 | 0.00 | 0.00 | 13 | 1020.6 |
| 20260510070057 | 61 | 0 | 0.0 | 0.0 | 0.00 | 0.00 | 0.00 | 14 | 1020.6 |
| 20260510064550 | 60 | 0 | 0.0 | 0.0 | 0.00 | 0.00 | 0.00 | 13 | 1020.7 |
| 20260510063059 | 60 | 0 | 0.0 | 0.0 | 0.00 | 0.00 | 0.00 | 15 | 1020.7 |
| 20260510061549 | 60 | 0 | 0.0 | 0.0 | 0.00 | 0.00 | 0.00 | 16 | 1020.7 |
| 20260510060059 | 60 | 0 | 0.0 | 0.0 | 0.00 | 0.00 | 0.00 | 19 | 1020.7 |
| 20260510054559 | 60 | 0 | 0.0 | 0.0 | 0.00 | 0.00 | 0.00 | 21 | 1020.7 |
| 20260510053052 | 59 | 0 | 0.0 | 0.0 | 0.00 | 0.00 | 0.00 | 26 | 1020.8 |
| 20260510051647 | 59 | 0 | 0.0 | 0.0 | 0.00 | 0.00 | 0.00 | 46 | 1020.9 |
| 20260510050052 | 58 | 0 | 0.0 | 0.0 | 0.00 | 0.00 | 0.00 | 45 | 1020.8 |
| 20260510044552 | 59 | 0 | 0.0 | 0.0 | 0.00 | 0.00 | 0.00 | 53 | 1020.9 |
| 20260510043142 | 59 | 0 | 0.0 | 0.0 | 0.00 | 0.00 | 0.00 | 56 | 1020.8 |
| 20260510041555 | 60 | 0 | 0.0 | 0.0 | 0.00 | 0.00 | 0.00 | 55 | 1020.7 |
| 20260510040055 | 60 | 0 | 0.0 | 0.0 | 0.00 | 0.00 | 0.00 | 56 | 1020.7 |
| 20260510034555 | 60 | 0 | 0.0 | 0.0 | 0.00 | 0.00 | 0.00 | 58 | 1020.6 |
| 20260510033051 | 61 | 0 | 0.0 | 0.0 | 0.00 | 0.00 | 0.00 | 62 | 1020.5 |
| 20260510031624 | 61 | 0 | 0.0 | 0.0 | 0.00 | 0.00 | 0.00 | 59 | 1020.4 |
| 20260510030055 | 61 | 0 | 0.0 | 0.0 | 0.00 | 0.00 | 0.00 | 53 | 1020.2 |
| 20260510024550 | 62 | 0 | 0.0 | 0.0 | 0.00 | 0.00 | 0.00 | 53 | 1020.3 |
| 20260510023101 | 63 | 0 | 0.0 | 0.0 | 0.00 | 0.00 | 0.00 | 49 | 1020.3 |
| 20260510021559 | 64 | 0 | 0.0 | 0.0 | 0.00 | 0.00 | 0.00 | 47 | 1020.2 |
| 20260510020100 | 65 | 0 | 0.0 | 0.0 | 0.00 | 0.00 | 0.00 | 44 | 1020.2 |
| 20260510014550 | 65 | 0 | 0.0 | 0.0 | 0.00 | 0.00 | 0.00 | 38 | 1020.1 |
| 20260510013056 | 67 | 0 | 0.0 | 0.0 | 0.00 | 0.00 | 0.00 | 36 | 1020.2 |
| 20260510011620 | 68 | 0 | 0.0 | 3.0 | 0.00 | 0.00 | 0.00 | 32 | 1020.2 |
| 20260510010104 | 69 | 324 | 0.0 | 4.0 | 0.00 | 0.00 | 0.00 | 35 | 1020.2 |
| 20260510004559 | 70 | 352 | 2.0 | 7.0 | 0.00 | 0.00 | 0.00 | 39 | 1020.2 |
| 20260510003048 | 70 | 308 | 2.0 | 10.0 | 0.00 | 0.00 | 0.00 | 41 | 1020.2 |
| 20260510001552 | 71 | 344 | 3.0 | 8.0 | 0.00 | 0.00 | 0.00 | 40 | 1020.0 |
| 20260510000053 | 72 | 329 | 3.0 | 8.0 | 0.00 | 0.00 | 0.00 | 39 | 1020.0 |
| 20260509234548 | 73 | 324 | 3.0 | 6.0 | 0.00 | 0.00 | 0.00 | 40 | 1020.0 |
| 20260509233047 | 73 | 338 | 2.0 | 5.0 | 0.00 | 0.00 | 0.00 | 41 | 1020.0 |
| 20260509231557 | 74 | 311 | 3.0 | 8.0 | 0.00 | 0.00 | 0.00 | 41 | 1020.2 |
| 20260509230054 | 75 | 12 | 2.0 | 8.0 | 0.00 | 0.00 | 0.00 | 41 | 1020.3 |
| 20260509224551 | 75 | 11 | 2.0 | 8.0 | 0.00 | 0.00 | 0.00 | 43 | 1020.4 |
| 20260509223047 | 75 | 5 | 3.0 | 7.0 | 0.00 | 0.00 | 0.00 | 42 | 1020.4 |
| 20260509221549 | 74 | 13 | 2.0 | 10.0 | 0.00 | 0.00 | 0.00 | 43 | 1020.4 |
| 20260509220054 | 74 | 0 | 2.0 | 7.0 | 0.00 | 0.00 | 0.00 | 47 | 1020.7 |
| 20260509214551 | 75 | 13 | 2.0 | 8.0 | 0.00 | 0.00 | 0.00 | 40 | 1020.6 |
| 20260509213101 | 75 | 348 | 2.0 | 8.0 | 0.00 | 0.00 | 0.00 | 40 | 1020.7 |
| 20260509211611 | 75 | 5 | 4.0 | 9.0 | 0.00 | 0.00 | 0.00 | 38 | 1020.9 |
| 20260509210056 | 75 | 350 | 3.0 | 8.0 | 0.00 | 0.00 | 0.00 | 40 | 1021.1 |
| 20260509204600 | 75 | 9 | 4.0 | 8.0 | 0.00 | 0.00 | 0.00 | 38 | 1021.3 |
| 20260509203058 | 75 | 10 | 3.0 | 9.0 | 0.00 | 0.00 | 0.00 | 39 | 1021.3 |
| 20260509201558 | 75 | 314 | 3.0 | 9.0 | 0.00 | 0.00 | 0.00 | 38 | 1021.2 |
| 20260509200050 | 75 | 17 | 1.0 | 5.0 | 0.00 | 0.00 | 0.00 | 38 | 1021.3 |
| 20260509194549 | 74 | 16 | 4.0 | 8.0 | 0.00 | 0.00 | 0.00 | 36 | 1021.3 |
| 20260509193051 | 75 | 5 | 2.0 | 9.0 | 0.00 | 0.00 | 0.00 | 32 | 1021.3 |
| 20260509191550 | 76 | 338 | 2.0 | 10.0 | 0.00 | 0.00 | 0.00 | 40 | 1021.4 |
| 20260509190055 | 76 | 20 | 1.0 | 7.0 | 0.00 | 0.00 | 0.00 | 30 | 1021.4 |
| 20260509184549 | 75 | 11 | 2.0 | 8.0 | 0.00 | 0.00 | 0.00 | 33 | 1021.4 |
| 20260509183056 | 76 | 24 | 0.0 | 5.0 | 0.00 | 0.00 | 0.00 | 36 | 1021.5 |
| 20260509181604 | 76 | 348 | 1.0 | 4.0 | 0.00 | 0.00 | 0.00 | 30 | 1021.6 |
| 20260509180051 | 75 | 0 | 0.0 | 4.0 | 0.00 | 0.00 | 0.00 | 34 | 1021.5 |
| 20260509174552 | 73 | 12 | 2.0 | 7.0 | 0.00 | 0.00 | 0.00 | 30 | 1021.5 |
| 20260509173047 | 72 | 331 | 2.0 | 5.0 | 0.00 | 0.00 | 0.00 | 31 | 1021.5 |
| 20260509171548 | 72 | 13 | 1.0 | 4.0 | 0.00 | 0.00 | 0.00 | 30 | 1021.4 |
| 20260509170051 | 73 | 321 | 2.0 | 6.0 | 0.00 | 0.00 | 0.00 | 31 | 1021.1 |
| 20260509164550 | 73 | 10 | 1.0 | 5.0 | 0.00 | 0.00 | 0.00 | 19 | 1021.0 |
| 20260509163059 | 73 | 0 | 0.0 | 0.0 | 0.00 | 0.00 | 0.00 | 23 | 1021.0 |
| 20260509161546 | 72 | 0 | 0.0 | 0.0 | 0.00 | 0.00 | 0.00 | 18 | 1020.9 |
| 20260509160057 | 71 | 0 | 0.0 | 1.0 | 0.00 | 0.00 | 0.00 | 13 | 1020.9 |
| 20260509154556 | 70 | 0 | 0.0 | 0.0 | 0.00 | 0.00 | 0.00 | 12 | 1020.8 |
| 20260509153051 | 69 | 0 | 0.0 | 0.0 | 0.00 | 0.00 | 0.00 | 13 | 1020.9 |
| 20260509151547 | 68 | 0 | 0.0 | 0.0 | 0.00 | 0.00 | 0.00 | 16 | 1020.7 |
| 20260509150050 | 67 | 0 | 0.0 | 0.0 | 0.00 | 0.00 | 0.00 | 18 | 1020.7 |
| 20260509144552 | 66 | 0 | 0.0 | 0.0 | 0.00 | 0.00 | 0.00 | 18 | 1020.7 |
| 20260509143052 | 64 | 0 | 0.0 | 0.0 | 0.00 | 0.00 | 0.00 | 16 | 1020.6 |
| 20260509141551 | 63 | 0 | 0.0 | 0.0 | 0.00 | 0.00 | 0.00 | 16 | 1020.6 |
| 20260509140052 | 62 | 0 | 0.0 | 0.0 | 0.00 | 0.00 | 0.00 | 16 | 1020.3 |
| 20260509134554 | 61 | 0 | 0.0 | 0.0 | 0.00 | 0.00 | 0.00 | 15 | 1020.3 |
| 20260509133100 | 61 | 0 | 0.0 | 0.0 | 0.00 | 0.00 | 0.00 | 14 | 1020.2 |
| 20260509131551 | 61 | 0 | 0.0 | 0.0 | 0.00 | 0.00 | 0.00 | 12 | 1020.1 |
| 20260509130049 | 61 | 0 | 0.0 | 0.0 | 0.00 | 0.00 | 0.00 | 11 | 1020.0 |
| 20260509124600 | 60 | 0 | 0.0 | 0.0 | 0.00 | 0.00 | 0.00 | 11 | 1020.0 |
| 20260509123052 | 60 | 0 | 0.0 | 0.0 | 0.00 | 0.00 | 0.00 | 10 | 1020.0 |
| 20260509121552 | 60 | 0 | 0.0 | 0.0 | 0.00 | 0.00 | 0.00 | 9 | 1019.9 |
| 20260509120051 | 59 | 0 | 0.0 | 0.0 | 0.00 | 0.00 | 0.00 | 10 | 1020.0 |
| 20260509114558 | 60 | 0 | 0.0 | 0.0 | 0.00 | 0.00 | 0.00 | 10 | 1020.1 |
| 20260509113047 | 60 | 313 | 1.0 | 2.0 | 0.00 | 0.00 | 0.00 | 8 | 1020.0 |
| 20260509111548 | 60 | 0 | 0.0 | 0.0 | 0.00 | 0.00 | 0.00 | 8 | 1020.0 |
| 20260509110057 | 61 | 313 | 1.0 | 3.0 | 0.00 | 0.00 | 0.00 | 8 | 1019.9 |
| 20260509104552 | 61 | 313 | 1.0 | 3.0 | 0.00 | 0.00 | 0.00 | 8 | 1019.9 |
| 20260509103052 | 60 | 313 | 0.0 | 3.0 | 0.00 | 0.00 | 0.00 | 9 | 1019.9 |
| 20260509101556 | 60 | 0 | 0.0 | 0.0 | 0.00 | 0.00 | 0.00 | 9 | 1020.1 |
| 20260509094555 | 59 | 311 | 2.0 | 3.0 | 0.00 | 0.00 | 0.00 | 9 | 1020.2 |